Anchor Point, Alaska
Current Conditions -  °F | °C
As of 6:53 PM on Thursday 18 Dec 2014 (Local Time) from PAHO Reporting Station
Clear Clear  
Wind Chill: 25°   Ceiling: Unl
Heat Index: 33°   Visibility: 10mi
Dew Point: 24°   Wind: 9mph
Humidity: 70%   Direction: 50°NE
Pressure: 29.23"   Gusts: NA
Location:  59.77°N, 151.82°W
Report Text: PAHO 190353Z AUTO 05008KT 10SM CLR 01/M04 A2923 RMK AO2 SLP899 T00061044 TSNO
Loading
Personal Weather Stations






























Interactive Weather Map New forecast layout! Learn more

10-Day Weather Forecast

Advertisements
Track Severe Weather on mobile